createdAt,value
2022-10-07T00:01:55.973Z,3.40
2022-10-07T00:04:22.323Z,3.55
2022-10-07T00:06:48.853Z,3.38
2022-10-07T00:09:15.187Z,3.40
2022-10-07T00:11:41.826Z,2.88
2022-10-07T00:14:08.589Z,3.47
2022-10-07T00:16:37.964Z,2.95
2022-10-07T00:19:07.538Z,3.40
2022-10-07T00:21:35.356Z,2.88
2022-10-07T00:24:02.217Z,3.45
2022-10-07T00:26:30.908Z,3.67
2022-10-07T00:28:57.558Z,3.15
2022-10-07T00:31:36.470Z,2.90
2022-10-07T00:34:04.005Z,3.38
2022-10-07T00:36:35.665Z,2.97
2022-10-07T00:39:07.970Z,3.78
2022-10-07T00:41:50.095Z,2.78
2022-10-07T00:44:31.662Z,2.90
2022-10-07T00:47:05.981Z,3.15
2022-10-07T00:49:41.660Z,3.97
2022-10-07T00:52:08.453Z,3.88
2022-10-07T00:54:36.238Z,3.30
2022-10-07T00:57:03.433Z,3.50
2022-10-07T00:59:29.804Z,3.70
2022-10-07T01:01:56.145Z,3.50
2022-10-07T01:04:22.504Z,3.08
2022-10-07T01:06:48.927Z,3.90
2022-10-07T01:09:15.637Z,3.55
2022-10-07T01:12:01.304Z,4.10
2022-10-07T01:15:03.857Z,4.03
2022-10-07T01:17:46.224Z,3.85
2022-10-07T01:20:25.638Z,3.45
2022-10-07T01:22:56.608Z,3.33
2022-10-07T01:28:00.925Z,4.55
2022-10-07T01:30:31.650Z,3.80
2022-10-07T01:33:04.340Z,3.33
2022-10-07T01:35:35.197Z,4.47
2022-10-07T01:38:06.722Z,3.80
2022-10-07T01:40:41.942Z,4.38
2022-10-07T01:43:08.669Z,3.45
2022-10-07T01:45:39.693Z,3.80
2022-10-07T01:50:33.458Z,4.03
2022-10-07T01:53:12.581Z,3.97
2022-10-07T01:55:50.296Z,3.90
2022-10-07T01:58:41.129Z,3.85
2022-10-07T02:01:27.132Z,3.58
2022-10-07T02:04:19.398Z,3.70
2022-10-07T02:06:59.750Z,3.47
2022-10-07T02:09:36.496Z,4.00
2022-10-07T02:13:01.417Z,3.88
2022-10-07T02:15:36.271Z,4.28
2022-10-07T02:18:08.073Z,3.22
2022-10-07T02:20:38.039Z,3.63
2022-10-07T02:23:08.497Z,3.78
2022-10-07T02:25:40.823Z,3.97
2022-10-07T02:28:10.514Z,3.83
2022-10-07T02:30:37.803Z,3.67
2022-10-07T02:33:07.654Z,3.88
2022-10-07T02:35:45.312Z,4.32
2022-10-07T02:38:14.441Z,3.30
2022-10-07T02:40:59.748Z,4.35
2022-10-07T02:43:50.580Z,4.28
2022-10-07T02:46:24.975Z,3.80
2022-10-07T02:48:58.738Z,4.30
2022-10-07T02:51:34.962Z,4.53
2022-10-07T02:54:03.398Z,4.28
2022-10-07T02:56:33.705Z,4.80
2022-10-07T02:59:06.694Z,4.43
2022-10-07T03:01:38.632Z,4.45
2022-10-07T03:04:05.934Z,5.03
2022-10-07T03:06:34.949Z,4.75
2022-10-07T03:09:01.676Z,4.95
2022-10-07T03:11:28.546Z,4.82
2022-10-07T03:13:54.971Z,4.97
2022-10-07T03:16:21.560Z,4.78
2022-10-07T03:18:47.944Z,4.90
2022-10-07T03:21:14.402Z,5.05
2022-10-07T03:23:40.735Z,5.10
2022-10-07T03:26:07.048Z,5.30
2022-10-07T03:28:37.211Z,4.00
2022-10-07T03:31:05.944Z,4.85
2022-10-07T03:33:32.462Z,4.70
2022-10-07T03:35:58.773Z,4.03
2022-10-07T03:38:25.104Z,4.47
2022-10-07T03:40:51.423Z,4.47
2022-10-07T03:43:18.278Z,4.88
2022-10-07T03:45:51.158Z,5.40
2022-10-07T03:48:18.145Z,4.68
2022-10-07T03:50:56.413Z,5.15
2022-10-07T03:53:23.573Z,5.03
2022-10-07T03:55:50.352Z,4.38
2022-10-07T03:58:16.769Z,4.30
2022-10-07T04:00:43.178Z,3.88
2022-10-07T04:03:10.031Z,4.28
2022-10-07T04:05:36.991Z,4.57
2022-10-07T04:08:07.251Z,3.97
2022-10-07T04:10:34.388Z,4.88
2022-10-07T04:13:01.009Z,4.28
2022-10-07T04:15:27.401Z,4.20
2022-10-07T04:17:58.459Z,3.72
2022-10-07T04:22:52.366Z,4.32
2022-10-07T04:25:33.913Z,3.53
2022-10-07T04:28:08.466Z,4.07
2022-10-07T04:30:39.785Z,4.35
2022-10-07T04:33:06.301Z,3.03
2022-10-07T04:35:36.729Z,3.63
2022-10-07T04:38:03.093Z,4.50
2022-10-07T04:40:30.948Z,3.50
2022-10-07T04:43:15.908Z,3.30
2022-10-07T04:45:42.255Z,3.35
2022-10-07T04:48:08.714Z,3.28
2022-10-07T04:50:38.501Z,3.08
2022-10-07T04:53:10.843Z,3.10
2022-10-07T04:55:42.661Z,4.43
2022-10-07T04:58:09.881Z,3.58
2022-10-07T05:00:45.202Z,2.92
2022-10-07T05:03:13.872Z,3.08
2022-10-07T05:05:42.278Z,2.90
2022-10-07T05:08:09.010Z,3.85
2022-10-07T05:10:37.169Z,3.42
2022-10-07T05:13:04.955Z,3.10
2022-10-07T05:15:31.701Z,3.15
2022-10-07T05:17:58.252Z,2.95
2022-10-07T05:20:24.617Z,3.13
2022-10-07T05:22:50.965Z,2.95
2022-10-07T05:25:17.352Z,3.55
2022-10-07T05:27:44.169Z,3.35
2022-10-07T05:30:11.487Z,3.03
2022-10-07T05:32:37.817Z,2.70
2022-10-07T05:35:04.446Z,3.03
2022-10-07T05:37:32.280Z,2.83
2022-10-07T05:39:58.653Z,3.03
2022-10-07T05:42:24.979Z,3.15
2022-10-07T05:44:51.370Z,2.72
2022-10-07T05:47:18.833Z,2.80
2022-10-07T05:49:45.181Z,2.95
2022-10-07T05:52:11.569Z,3.17
2022-10-07T05:54:38.230Z,2.80
2022-10-07T05:57:04.757Z,3.00
2022-10-07T05:59:31.326Z,2.78
2022-10-07T06:02:00.121Z,2.97
2022-10-07T06:04:27.535Z,3.08
2022-10-07T06:06:53.909Z,2.40
2022-10-07T06:09:39.609Z,3.00
2022-10-07T06:12:24.397Z,3.08
2022-10-07T06:14:51.231Z,2.67
2022-10-07T06:17:17.588Z,2.60
2022-10-07T06:19:43.903Z,2.55
2022-10-07T06:22:11.085Z,2.55
2022-10-07T06:24:37.489Z,2.53
2022-10-07T06:27:03.975Z,3.28
2022-10-07T06:29:30.350Z,2.55
2022-10-07T06:31:56.681Z,2.30
2022-10-07T06:34:23.066Z,2.47
2022-10-07T06:36:49.429Z,2.60
2022-10-07T06:39:17.597Z,2.55
2022-10-07T06:41:44.268Z,2.47
2022-10-07T06:44:10.713Z,2.25
2022-10-07T06:46:37.037Z,2.75
2022-10-07T06:49:04.771Z,2.70
2022-10-07T06:51:31.182Z,3.00
2022-10-07T06:54:00.200Z,2.63
2022-10-07T06:56:26.553Z,2.53
2022-10-07T06:58:52.979Z,2.72
2022-10-07T07:01:19.364Z,2.13
2022-10-07T07:03:45.898Z,3.20
2022-10-07T07:06:12.349Z,3.10
2022-10-07T07:08:41.268Z,2.83
2022-10-07T07:11:29.400Z,3.15
2022-10-07T07:13:56.507Z,3.08
2022-10-07T07:16:27.058Z,2.78
2022-10-07T07:18:56.144Z,2.45
2022-10-07T07:21:23.184Z,2.38
2022-10-07T07:23:53.912Z,2.20
2022-10-07T07:26:20.786Z,2.40
2022-10-07T07:28:54.990Z,2.15
2022-10-07T07:31:21.433Z,2.35
2022-10-07T07:33:52.392Z,2.25
2022-10-07T07:36:22.594Z,2.42
2022-10-07T07:39:01.385Z,2.13
2022-10-07T07:41:31.381Z,2.38
2022-10-07T07:43:59.854Z,2.47
2022-10-07T07:46:31.963Z,4.72
2022-10-07T07:48:58.467Z,2.15
2022-10-07T07:51:25.070Z,2.40
2022-10-07T07:53:52.275Z,1.58
2022-10-07T07:56:20.149Z,1.80
2022-10-07T07:58:46.880Z,1.90
2022-10-07T08:01:16.026Z,2.33
2022-10-07T08:03:44.465Z,1.50
2022-10-07T08:06:12.110Z,1.88
2022-10-07T08:08:40.046Z,1.60
2022-10-07T08:11:08.070Z,1.95
2022-10-07T08:13:36.394Z,1.80
2022-10-07T08:16:04.939Z,1.90
2022-10-07T08:18:32.198Z,1.73
2022-10-07T08:21:00.285Z,1.55
2022-10-07T08:23:29.292Z,1.70
2022-10-07T08:25:59.698Z,2.40
2022-10-07T08:28:28.259Z,1.90
2022-10-07T08:31:01.105Z,1.98
2022-10-07T08:33:27.512Z,2.42
2022-10-07T08:36:01.124Z,1.55
2022-10-07T08:38:32.981Z,1.70
2022-10-07T08:41:14.113Z,2.22
2022-10-07T08:43:46.442Z,1.60
2022-10-07T08:46:16.709Z,2.33
2022-10-07T08:48:52.124Z,2.05
2022-10-07T08:51:24.551Z,1.88
2022-10-07T08:53:55.643Z,2.30
2022-10-07T08:56:26.785Z,2.55
2022-10-07T08:59:21.682Z,1.85
2022-10-07T09:02:14.269Z,2.38
2022-10-07T09:04:46.517Z,1.90
2022-10-07T09:07:25.659Z,2.13
2022-10-07T09:10:06.740Z,2.10
2022-10-07T09:12:41.961Z,2.10
2022-10-07T09:15:19.610Z,1.90
2022-10-07T09:17:59.086Z,1.88
2022-10-07T09:20:42.056Z,1.88
2022-10-07T09:23:15.270Z,2.00
2022-10-07T09:25:43.267Z,1.92
2022-10-07T09:28:16.062Z,1.90
2022-10-07T09:30:42.945Z,1.50
2022-10-07T09:33:16.267Z,2.22
2022-10-07T09:35:57.261Z,2.03
2022-10-07T09:38:39.621Z,1.80
2022-10-07T09:41:30.394Z,2.22
2022-10-07T09:44:19.446Z,2.58
2022-10-07T09:46:59.369Z,2.80
2022-10-07T09:49:28.775Z,1.60
2022-10-07T09:52:02.212Z,1.85
2022-10-07T09:54:30.883Z,2.60
2022-10-07T09:57:00.073Z,2.03
2022-10-07T09:59:27.883Z,2.00
2022-10-07T10:01:57.833Z,1.67
2022-10-07T10:04:31.600Z,1.98
2022-10-07T10:07:06.313Z,2.38
2022-10-07T10:09:34.918Z,2.28
2022-10-07T10:12:12.845Z,1.92
2022-10-07T10:14:49.999Z,1.85
2022-10-07T10:17:27.036Z,1.52
2022-10-07T10:19:53.925Z,1.52
2022-10-07T10:22:26.814Z,2.00
2022-10-07T10:25:13.425Z,2.00
2022-10-07T10:27:54.213Z,1.88
2022-10-07T10:30:22.692Z,1.65
2022-10-07T10:33:07.566Z,1.80
2022-10-07T10:35:39.414Z,1.85
2022-10-07T10:38:33.044Z,1.60
2022-10-07T10:41:19.911Z,1.65
2022-10-07T10:44:03.474Z,1.70
2022-10-07T10:46:59.988Z,2.35
2022-10-07T10:49:54.747Z,2.40
2022-10-07T10:52:35.345Z,2.42
2022-10-07T10:55:17.729Z,1.40
2022-10-07T10:57:56.843Z,1.65
2022-10-07T11:00:48.846Z,1.63
2022-10-07T11:03:34.074Z,2.00
2022-10-07T11:06:06.335Z,2.30
2022-10-07T11:08:38.431Z,2.30
2022-10-07T11:11:09.170Z,2.20
2022-10-07T11:13:56.728Z,1.90
2022-10-07T11:16:28.028Z,1.70
2022-10-07T11:19:16.357Z,1.50
2022-10-07T11:21:48.477Z,2.80
2022-10-07T11:24:28.904Z,1.98
2022-10-07T11:27:19.441Z,1.80
2022-10-07T11:29:55.069Z,2.47
2022-10-07T11:32:49.301Z,1.88
2022-10-07T11:35:38.361Z,1.70
2022-10-07T11:38:12.181Z,1.60
2022-10-07T11:40:52.017Z,1.77
2022-10-07T11:43:30.533Z,1.60
2022-10-07T11:46:07.894Z,2.42
2022-10-07T11:48:43.803Z,2.33
2022-10-07T11:51:21.520Z,1.70
2022-10-07T11:53:48.502Z,2.00
2022-10-07T11:56:16.877Z,1.33
2022-10-07T11:58:44.534Z,1.60
2022-10-07T12:01:26.166Z,1.83
2022-10-07T12:03:54.614Z,2.38
2022-10-07T12:06:20.963Z,1.60
2022-10-07T12:08:47.539Z,1.50
2022-10-07T12:11:17.214Z,1.65
2022-10-07T12:13:47.621Z,1.20
2022-10-07T12:16:32.213Z,1.13
2022-10-07T12:19:07.588Z,1.67
2022-10-07T12:21:57.874Z,1.30
2022-10-07T12:24:24.219Z,1.00
2022-10-07T12:26:51.435Z,1.50
2022-10-07T12:29:59.644Z,1.20
2022-10-07T12:32:48.169Z,1.58
2022-10-07T12:35:29.972Z,1.20
2022-10-07T12:38:23.474Z,1.10
2022-10-07T12:41:14.762Z,1.40
2022-10-07T12:43:57.122Z,1.33
2022-10-07T12:46:26.456Z,1.35
2022-10-07T12:49:30.113Z,1.77
2022-10-07T12:52:00.514Z,1.38
2022-10-07T12:54:44.796Z,1.30
2022-10-07T12:57:16.819Z,1.52
2022-10-07T13:00:02.925Z,1.27
2022-10-07T13:02:57.148Z,1.42
2022-10-07T13:06:01.409Z,1.40
2022-10-07T13:08:42.067Z,1.20
2022-10-07T13:11:47.522Z,1.98
2022-10-07T13:14:36.233Z,1.65
2022-10-07T13:17:16.485Z,1.60
2022-10-07T13:19:56.752Z,1.50
2022-10-07T13:22:24.237Z,1.50
2022-10-07T13:24:55.230Z,1.50
2022-10-07T13:27:32.629Z,1.10
2022-10-07T13:30:01.663Z,1.25
2022-10-07T13:32:34.256Z,1.00
2022-10-07T13:35:29.285Z,1.10
2022-10-07T13:37:55.767Z,1.83
2022-10-07T13:40:34.007Z,1.65
2022-10-07T13:43:02.833Z,1.10
2022-10-07T13:45:32.157Z,1.10
2022-10-07T13:47:58.849Z,1.70
2022-10-07T13:50:27.728Z,1.13
2022-10-07T13:52:56.270Z,1.75
2022-10-07T13:55:25.684Z,1.08
2022-10-07T13:57:54.733Z,1.05
2022-10-07T14:00:21.153Z,1.25
2022-10-07T14:02:49.585Z,1.00
2022-10-07T14:05:29.837Z,1.10
2022-10-07T14:08:10.729Z,1.30
2022-10-07T14:11:05.884Z,1.25
2022-10-07T14:13:34.637Z,1.60
2022-10-07T14:16:01.241Z,1.13
2022-10-07T14:18:31.874Z,1.65
2022-10-07T14:21:16.938Z,1.20
2022-10-07T14:23:46.840Z,2.03
2022-10-07T14:26:17.655Z,1.60
2022-10-07T14:28:44.931Z,1.00
2022-10-07T14:31:37.671Z,1.40
2022-10-07T14:34:32.196Z,1.58
2022-10-07T14:37:10.316Z,1.63
2022-10-07T14:39:49.945Z,2.53
2022-10-07T14:42:35.853Z,1.60
2022-10-07T14:45:04.929Z,2.08
2022-10-07T14:47:31.854Z,1.15
2022-10-07T14:50:01.270Z,1.60
2022-10-07T14:52:31.875Z,1.20
2022-10-07T14:57:26.104Z,1.65
2022-10-07T14:59:53.281Z,2.08
2022-10-07T15:02:20.305Z,1.77
2022-10-07T15:04:47.326Z,1.88
2022-10-07T15:07:16.408Z,1.58
2022-10-07T15:09:44.799Z,1.50
2022-10-07T15:12:12.860Z,1.70
2022-10-07T15:14:39.228Z,1.60
2022-10-07T15:17:06.034Z,1.77
2022-10-07T15:19:35.820Z,1.40
2022-10-07T15:22:02.164Z,1.95
2022-10-07T15:24:30.126Z,1.90
2022-10-07T15:26:56.478Z,1.90
2022-10-07T15:29:23.668Z,1.90
2022-10-07T15:31:52.134Z,1.45
2022-10-07T15:34:18.556Z,1.80
2022-10-07T15:36:48.546Z,1.70
2022-10-07T15:39:15.373Z,1.52
2022-10-07T15:41:43.166Z,2.20
2022-10-07T15:44:16.102Z,2.28
2022-10-07T15:46:44.011Z,2.22
2022-10-07T15:49:10.748Z,1.40
2022-10-07T15:51:37.394Z,1.52
2022-10-07T15:54:05.312Z,2.10
2022-10-07T15:56:32.405Z,1.90
2022-10-07T15:59:00.475Z,2.30
2022-10-07T16:01:28.742Z,1.90
2022-10-07T16:03:55.783Z,2.20
2022-10-07T16:06:27.515Z,1.70
2022-10-07T16:08:56.318Z,2.92
2022-10-07T16:11:22.779Z,2.03
2022-10-07T16:13:49.834Z,1.48
2022-10-07T16:16:22.726Z,1.65
2022-10-07T16:18:51.564Z,2.20
2022-10-07T16:21:22.619Z,1.63
2022-10-07T16:23:56.184Z,2.10
2022-10-07T16:26:26.317Z,2.10
2022-10-07T16:29:12.940Z,1.80
2022-10-07T16:31:41.850Z,2.40
2022-10-07T16:34:10.800Z,2.60
2022-10-07T16:36:40.996Z,2.47
2022-10-07T16:39:10.005Z,2.85
2022-10-07T16:41:37.577Z,3.00
2022-10-07T16:44:04.986Z,3.67
2022-10-07T16:46:32.213Z,3.65
2022-10-07T16:49:00.227Z,3.47
2022-10-07T16:51:30.570Z,3.08
2022-10-07T16:54:01.628Z,2.55
2022-10-07T16:56:30.032Z,2.92
2022-10-07T16:58:58.372Z,3.10
2022-10-07T17:01:26.885Z,2.53
2022-10-07T17:03:54.637Z,2.97
2022-10-07T17:06:22.676Z,3.00
2022-10-07T17:08:49.415Z,2.67
2022-10-07T17:11:31.223Z,2.47
2022-10-07T17:14:06.952Z,2.55
2022-10-07T17:16:42.781Z,2.40
2022-10-07T17:19:12.776Z,2.97
2022-10-07T17:21:41.743Z,2.33
2022-10-07T17:24:09.732Z,1.88
2022-10-07T17:26:37.421Z,2.10
2022-10-07T17:29:09.777Z,2.17
2022-10-07T17:31:39.021Z,2.08
2022-10-07T17:34:06.244Z,2.78
2022-10-07T17:36:33.222Z,2.00
2022-10-07T17:39:00.205Z,2.13
2022-10-07T17:41:28.891Z,1.80
2022-10-07T17:43:57.289Z,2.40
2022-10-07T17:46:25.968Z,1.92
2022-10-07T17:48:54.944Z,3.10
2022-10-07T17:51:24.043Z,2.90
2022-10-07T17:53:51.022Z,4.25
2022-10-07T17:56:17.929Z,3.75
2022-10-07T17:58:45.874Z,3.88
2022-10-07T18:01:19.450Z,3.50
2022-10-07T18:03:51.330Z,4.45
2022-10-07T18:06:17.683Z,3.50
2022-10-07T18:08:44.231Z,4.07
2022-10-07T18:11:10.743Z,3.15
2022-10-07T18:13:56.029Z,4.07
2022-10-07T18:16:22.755Z,3.20
2022-10-07T18:18:58.555Z,3.22
2022-10-07T18:21:25.152Z,3.58
2022-10-07T18:23:54.262Z,3.60
2022-10-07T18:26:20.625Z,2.65
2022-10-07T18:28:47.454Z,2.53
2022-10-07T18:31:16.769Z,2.08
2022-10-07T18:33:44.679Z,2.42
2022-10-07T18:36:16.751Z,2.38
2022-10-07T18:38:44.493Z,2.30
2022-10-07T18:41:13.798Z,2.30
2022-10-07T18:43:41.415Z,2.30
2022-10-07T18:46:14.119Z,2.60
2022-10-07T18:48:41.976Z,2.08
2022-10-07T18:51:10.279Z,2.42
2022-10-07T18:53:38.373Z,1.98
2022-10-07T18:56:07.401Z,2.05
2022-10-07T18:58:39.668Z,2.22
2022-10-07T19:01:08.146Z,2.53
2022-10-07T19:03:37.293Z,2.40
2022-10-07T19:06:09.592Z,2.50
2022-10-07T19:08:36.852Z,2.08
2022-10-07T19:11:05.308Z,2.67
2022-10-07T19:13:51.890Z,2.47
2022-10-07T19:16:23.786Z,2.50
2022-10-07T19:18:55.144Z,2.15
2022-10-07T19:21:23.009Z,2.30
2022-10-07T19:23:51.730Z,2.33
2022-10-07T19:26:21.560Z,2.42
2022-10-07T19:28:49.763Z,2.90
2022-10-07T19:31:25.740Z,2.30
2022-10-07T19:33:56.513Z,2.15
2022-10-07T19:38:53.468Z,1.80
2022-10-07T19:41:22.936Z,1.85
2022-10-07T19:43:49.925Z,2.20
2022-10-07T19:46:18.128Z,2.10
2022-10-07T19:48:45.356Z,2.10
2022-10-07T19:51:14.518Z,2.03
2022-10-07T19:53:46.626Z,1.95
2022-10-07T19:56:25.292Z,1.95
2022-10-07T19:59:05.401Z,1.98
2022-10-07T20:01:34.901Z,1.85
2022-10-07T20:04:14.034Z,2.00
2022-10-07T20:06:41.557Z,1.60
2022-10-07T20:09:11.169Z,2.00
2022-10-07T20:11:37.691Z,1.80
2022-10-07T20:14:05.753Z,1.80
2022-10-07T20:16:34.022Z,2.20
2022-10-07T20:19:06.653Z,2.03
2022-10-07T20:21:35.948Z,1.73
2022-10-07T20:24:03.211Z,2.83
2022-10-07T20:26:35.390Z,1.63
2022-10-07T20:29:06.959Z,1.73
2022-10-07T20:31:35.579Z,1.55
2022-10-07T20:34:02.807Z,2.22
2022-10-07T20:36:32.246Z,1.60
2022-10-07T20:39:20.489Z,2.60
2022-10-07T20:42:05.792Z,2.22
2022-10-07T20:44:32.541Z,1.55
2022-10-07T20:46:58.985Z,2.70
2022-10-07T20:49:28.591Z,2.03
2022-10-07T20:51:57.213Z,1.63
2022-10-07T20:54:25.585Z,2.35
2022-10-07T20:56:52.969Z,1.40
2022-10-07T20:59:20.344Z,2.50
2022-10-07T21:01:46.966Z,1.70
2022-10-07T21:04:14.877Z,1.98
2022-10-07T21:06:42.210Z,1.70
2022-10-07T21:09:09.532Z,1.95
2022-10-07T21:11:36.397Z,1.70
2022-10-07T21:14:03.069Z,2.50
2022-10-07T21:16:30.842Z,1.73
2022-10-07T21:18:57.606Z,1.77
2022-10-07T21:21:24.805Z,1.75
2022-10-07T21:23:51.654Z,1.58
2022-10-07T21:26:18.830Z,1.48
2022-10-07T21:28:48.091Z,2.10
2022-10-07T21:31:17.456Z,1.80
2022-10-07T21:33:47.916Z,1.92
2022-10-07T21:36:17.133Z,2.17
2022-10-07T21:38:45.351Z,1.67
2022-10-07T21:41:20.776Z,1.45
2022-10-07T21:43:54.395Z,2.10
2022-10-07T21:46:23.065Z,1.60
2022-10-07T21:48:49.885Z,2.33
2022-10-07T21:51:16.880Z,1.73
2022-10-07T21:53:44.197Z,1.98
2022-10-07T21:56:12.164Z,1.80
2022-10-07T21:58:39.148Z,1.73
2022-10-07T22:01:07.466Z,2.25
2022-10-07T22:03:34.768Z,1.92
2022-10-07T22:06:06.458Z,2.33
2022-10-07T22:08:36.704Z,2.03
2022-10-07T22:11:15.120Z,1.83
2022-10-07T22:13:46.794Z,1.77
2022-10-07T22:16:16.030Z,1.70
2022-10-07T22:18:49.292Z,2.13
2022-10-07T22:21:22.697Z,2.00
2022-10-07T22:23:50.943Z,1.92
2022-10-07T22:26:18.841Z,1.80
2022-10-07T22:28:46.497Z,1.80
2022-10-07T22:31:14.882Z,1.83
2022-10-07T22:33:42.051Z,1.50
2022-10-07T22:36:10.877Z,1.92
2022-10-07T22:38:38.104Z,2.40
2022-10-07T22:41:10.616Z,1.83
2022-10-07T22:43:44.893Z,1.80
2022-10-07T22:46:26.800Z,2.42
2022-10-07T22:48:56.223Z,1.70
2022-10-07T22:51:24.306Z,2.95
2022-10-07T22:53:53.933Z,1.58
2022-10-07T22:56:22.210Z,2.10
2022-10-07T22:58:53.063Z,2.25
2022-10-07T23:01:20.232Z,1.90
2022-10-07T23:03:46.958Z,2.47
2022-10-07T23:06:15.932Z,1.90
2022-10-07T23:08:44.654Z,1.80
2022-10-07T23:11:16.058Z,1.90
2022-10-07T23:13:42.961Z,2.85
2022-10-07T23:16:12.092Z,1.67
2022-10-07T23:18:43.036Z,2.03
2022-10-07T23:21:18.866Z,1.95
2022-10-07T23:23:47.953Z,1.83
2022-10-07T23:26:19.029Z,2.03
2022-10-07T23:28:47.214Z,2.10
2022-10-07T23:31:14.669Z,1.77
2022-10-07T23:33:41.170Z,2.00
2022-10-07T23:36:10.432Z,1.98
2022-10-07T23:38:38.948Z,1.85
2022-10-07T23:41:06.524Z,1.75
2022-10-07T23:43:33.442Z,2.10
2022-10-07T23:46:01.151Z,2.22
2022-10-07T23:48:27.745Z,2.05
2022-10-07T23:50:57.532Z,1.70
2022-10-07T23:53:23.886Z,1.88
2022-10-07T23:55:52.215Z,1.80
2022-10-07T23:58:20.980Z,1.70
